createdAt,value
2019-04-29T00:00:11.578Z,12.01
2019-04-29T00:05:14.072Z,13.09
2019-04-29T00:10:16.583Z,12.68
2019-04-29T00:15:19.154Z,13.14
2019-04-29T00:20:21.741Z,12.91
2019-04-29T00:25:24.443Z,12.99
2019-04-29T00:30:26.882Z,13.58
2019-04-29T00:35:29.689Z,12.72
2019-04-29T00:40:32.165Z,12.80
2019-04-29T00:45:34.679Z,12.53
2019-04-29T00:50:37.109Z,13.51
2019-04-29T00:55:40.224Z,12.55
2019-04-29T01:00:42.721Z,12.96
2019-04-29T01:05:45.747Z,13.14
2019-04-29T01:10:48.229Z,12.63
2019-04-29T01:15:50.740Z,12.49
2019-04-29T01:20:53.268Z,13.60
2019-04-29T01:25:56.021Z,13.37
2019-04-29T01:30:58.881Z,13.19
2019-04-29T01:36:01.455Z,13.28
2019-04-29T01:41:03.956Z,13.85
2019-04-29T01:46:07.148Z,13.36
2019-04-29T01:51:10.190Z,13.50
2019-04-29T01:56:13.942Z,13.67
2019-04-29T02:01:16.423Z,13.70
2019-04-29T02:06:18.963Z,14.15
2019-04-29T02:11:21.731Z,13.19
2019-04-29T02:16:24.303Z,13.74
2019-04-29T02:21:26.731Z,15.68
2019-04-29T02:26:29.611Z,13.37
2019-04-29T02:31:32.293Z,13.74
2019-04-29T02:36:34.837Z,13.39
2019-04-29T02:41:37.408Z,13.38
2019-04-29T02:46:40.316Z,14.02
2019-04-29T02:51:42.784Z,13.47
2019-04-29T02:56:45.478Z,13.30
2019-04-29T03:01:47.867Z,14.01
2019-04-29T03:06:50.397Z,13.64
2019-04-29T03:11:52.917Z,13.14
2019-04-29T03:16:55.515Z,13.88
2019-04-29T03:21:57.903Z,15.04
2019-04-29T03:27:00.394Z,13.75
2019-04-29T03:32:02.826Z,14.28
2019-04-29T03:37:05.320Z,13.82
2019-04-29T03:42:07.864Z,13.53
2019-04-29T03:47:10.492Z,14.30
2019-04-29T03:52:13.130Z,13.93
2019-04-29T03:57:15.672Z,14.75
2019-04-29T04:02:18.113Z,13.67
2019-04-29T04:07:20.654Z,13.13
2019-04-29T04:12:23.333Z,13.53
2019-04-29T04:17:25.919Z,13.30
2019-04-29T04:22:28.368Z,12.69
2019-04-29T04:27:30.778Z,13.13
2019-04-29T04:32:33.105Z,12.89
2019-04-29T04:37:35.591Z,14.17
2019-04-29T04:42:37.984Z,13.06
2019-04-29T04:47:40.518Z,13.19
2019-04-29T04:52:42.937Z,13.29
2019-04-29T04:57:45.443Z,12.42
2019-04-29T05:02:48.059Z,13.10
2019-04-29T05:07:50.886Z,12.95
2019-04-29T05:12:53.828Z,13.65
2019-04-29T05:17:56.616Z,14.21
2019-04-29T05:22:59.495Z,13.99
2019-04-29T05:28:02.029Z,13.42
2019-04-29T05:33:04.908Z,12.98
2019-04-29T05:38:07.485Z,13.20
2019-04-29T05:43:10.009Z,12.95
2019-04-29T05:48:12.553Z,14.71
2019-04-29T05:53:16.127Z,14.56
2019-04-29T05:58:17.224Z,14.77
2019-04-29T06:03:19.729Z,14.08
2019-04-29T06:08:22.586Z,13.93
2019-04-29T06:13:24.941Z,14.19
2019-04-29T06:18:27.657Z,14.45
2019-04-29T06:23:30.124Z,13.99
2019-04-29T06:28:32.986Z,12.97
2019-04-29T06:33:35.382Z,13.34
2019-04-29T06:38:37.874Z,12.17
2019-04-29T06:43:40.255Z,11.29
2019-04-29T06:48:42.901Z,11.79
2019-04-29T06:53:47.778Z,10.69
2019-04-29T06:58:49.133Z,10.23
2019-04-29T07:03:49.800Z,10.08
2019-04-29T07:08:52.549Z,10.45
2019-04-29T07:13:57.506Z,10.25
2019-04-29T07:18:57.368Z,10.27
2019-04-29T07:23:59.806Z,10.18
2019-04-29T07:29:02.272Z,10.25
2019-04-29T07:34:08.143Z,10.26
2019-04-29T07:39:06.871Z,10.69
2019-04-29T07:44:09.329Z,10.33
2019-04-29T07:49:12.832Z,10.60
2019-04-29T07:54:15.816Z,10.49
2019-04-29T07:59:16.298Z,10.96
2019-04-29T08:04:19.142Z,10.15
2019-04-29T08:09:21.737Z,10.09
2019-04-29T08:14:24.248Z,10.08
2019-04-29T08:19:29.471Z,10.02
2019-04-29T08:24:29.449Z,10.70
2019-04-29T08:29:35.681Z,9.98
2019-04-29T08:34:33.993Z,10.02
2019-04-29T08:39:36.583Z,10.30
2019-04-29T08:44:39.139Z,10.06
2019-04-29T08:49:41.714Z,10.08
2019-04-29T08:54:44.126Z,10.34
2019-04-29T08:59:46.670Z,10.18
2019-04-29T09:04:53.719Z,10.07
2019-04-29T09:09:51.586Z,10.16
2019-04-29T09:14:54.145Z,9.87
2019-04-29T09:19:56.804Z,9.71
2019-04-29T09:24:59.335Z,9.89
2019-04-29T09:30:02.287Z,10.00
2019-04-29T09:35:04.774Z,9.77
2019-04-29T09:40:07.506Z,9.95
2019-04-29T09:45:10.231Z,9.42
2019-04-29T09:50:12.879Z,9.40
2019-04-29T09:55:15.490Z,9.68
2019-04-29T10:00:18.348Z,9.42
2019-04-29T10:05:20.927Z,9.88
2019-04-29T10:10:23.565Z,10.03
2019-04-29T10:15:26.109Z,9.40
2019-04-29T10:20:28.767Z,9.33
2019-04-29T10:25:31.710Z,9.13
2019-04-29T10:30:34.232Z,9.00
2019-04-29T10:35:40.736Z,8.90
2019-04-29T10:40:38.978Z,9.06
2019-04-29T10:45:41.588Z,9.16
2019-04-29T10:50:47.194Z,9.37
2019-04-29T10:55:46.165Z,9.25
2019-04-29T11:00:52.681Z,8.84
2019-04-29T11:06:00.429Z,9.29
2019-04-29T11:11:01.869Z,8.50
2019-04-29T11:15:55.075Z,9.20
2019-04-29T11:20:58.004Z,9.64
2019-04-29T11:26:01.843Z,9.55
2019-04-29T11:31:04.330Z,9.20
2019-04-29T11:36:06.872Z,9.72
2019-04-29T11:41:12.261Z,9.67
2019-04-29T11:46:14.404Z,9.23
2019-04-29T11:51:13.805Z,9.78
2019-04-29T11:56:16.534Z,9.41
2019-04-29T12:01:19.204Z,9.77
2019-04-29T12:06:22.018Z,9.43
2019-04-29T12:11:28.154Z,8.79
2019-04-29T12:16:27.012Z,8.84
2019-04-29T12:21:29.553Z,8.69
2019-04-29T12:26:35.645Z,8.19
2019-04-29T12:31:34.289Z,8.75
2019-04-29T12:36:54.764Z,7.71
2019-04-29T12:41:48.443Z,8.28
2019-04-29T12:46:41.829Z,7.83
2019-04-29T12:51:44.422Z,7.65
2019-04-29T12:56:47.979Z,8.11
2019-04-29T13:01:52.118Z,7.17
2019-04-29T13:06:51.186Z,6.97
2019-04-29T13:12:11.129Z,7.52
2019-04-29T13:16:57.099Z,7.00
2019-04-29T13:48:07.573Z,6.95
2019-04-29T13:54:06.625Z,6.65
2019-04-29T13:58:08.135Z,6.72
2019-04-29T14:03:11.742Z,6.55
2019-04-29T16:35:12.276Z,6.96
2019-04-29T16:40:14.993Z,6.85
2019-04-29T18:10:24.591Z,6.94
